YGQ weather

Geraldton Greenstone Regional Airport
Geraldton, Ontario, Canada

Public forecast

Using degrees Celsius for public forecast. Weather courtesy of forecast.io.

Current aviation weather report (METAR) for Geraldton Greenstone Regional Airport

Retrieved 2020/06/05 11:00 UTC (2 hours ago):

CYGQ 051100Z 25003KT 15SM SCT130 09/08 A2973 RMK AC4 SLP076

Aviation forecast (TAF) for Geraldton Greenstone Regional Airport

Retrieved 2020/06/05 08:45 UTC (4 hours ago):

TAF TAF CYGQ 050741Z 0508/0520 VRB03KT P6SM FEW120 TEMPO 0509/0513 2SM BR PROB40 0509/0513 1/2SM FG VV002 FM051400 28010G20KT P6SM BKN080 TEMPO 0516/0520 P6SM -SHRA PROB30 0518/0520 VRB15G25KT 2SM TSRA BR BKN020 OVC050CB RMK NXT FCST BY 051400Z